sensor_id;sensor_type;location;lat;lon;timestamp;P1;durP1;ratioP1;P2;durP2;ratioP2
8791;SDS011;4432;50.890;4.744;2022-07-23T00:01:24;9.43;;;6.40;;
8791;SDS011;4432;50.890;4.744;2022-07-23T00:03:50;9.97;;;6.60;;
8791;SDS011;4432;50.890;4.744;2022-07-23T00:06:17;8.53;;;5.87;;
8791;SDS011;4432;50.890;4.744;2022-07-23T00:08:43;9.93;;;6.47;;
8791;SDS011;4432;50.890;4.744;2022-07-23T00:11:09;8.03;;;5.73;;
8791;SDS011;4432;50.890;4.744;2022-07-23T00:13:34;14.83;;;6.63;;
8791;SDS011;4432;50.890;4.744;2022-07-23T00:16:00;7.50;;;5.87;;
8791;SDS011;4432;50.890;4.744;2022-07-23T00:18:26;9.43;;;6.33;;
8791;SDS011;4432;50.890;4.744;2022-07-23T00:20:52;8.37;;;6.57;;
8791;SDS011;4432;50.890;4.744;2022-07-23T00:23:18;7.43;;;5.80;;
8791;SDS011;4432;50.890;4.744;2022-07-23T00:25:44;8.73;;;6.30;;
8791;SDS011;4432;50.890;4.744;2022-07-23T00:28:10;9.43;;;6.57;;
8791;SDS011;4432;50.890;4.744;2022-07-23T00:30:36;9.37;;;5.90;;
8791;SDS011;4432;50.890;4.744;2022-07-23T00:33:03;12.80;;;6.30;;
8791;SDS011;4432;50.890;4.744;2022-07-23T00:35:33;7.17;;;5.47;;
8791;SDS011;4432;50.890;4.744;2022-07-23T00:38:01;8.80;;;6.27;;
8791;SDS011;4432;50.890;4.744;2022-07-23T00:40:28;12.10;;;6.50;;
8791;SDS011;4432;50.890;4.744;2022-07-23T00:42:54;9.03;;;6.03;;
8791;SDS011;4432;50.890;4.744;2022-07-23T00:45:20;14.20;;;6.77;;
8791;SDS011;4432;50.890;4.744;2022-07-23T00:47:46;15.73;;;7.53;;
8791;SDS011;4432;50.890;4.744;2022-07-23T00:50:12;8.77;;;5.30;;
8791;SDS011;4432;50.890;4.744;2022-07-23T00:52:39;14.50;;;5.93;;
8791;SDS011;4432;50.890;4.744;2022-07-23T00:55:06;6.70;;;5.77;;
8791;SDS011;4432;50.890;4.744;2022-07-23T00:57:34;9.83;;;6.37;;
8791;SDS011;4432;50.890;4.744;2022-07-23T01:00:01;9.30;;;6.13;;
8791;SDS011;4432;50.890;4.744;2022-07-23T01:02:27;8.10;;;6.13;;
8791;SDS011;4432;50.890;4.744;2022-07-23T01:04:53;9.90;;;5.87;;
8791;SDS011;4432;50.890;4.744;2022-07-23T01:07:19;10.93;;;5.60;;
8791;SDS011;4432;50.890;4.744;2022-07-23T01:09:45;8.57;;;6.17;;
8791;SDS011;4432;50.890;4.744;2022-07-23T01:12:11;6.30;;;5.10;;
8791;SDS011;4432;50.890;4.744;2022-07-23T01:14:37;11.23;;;6.53;;
8791;SDS011;4432;50.890;4.744;2022-07-23T01:17:04;9.83;;;6.07;;
8791;SDS011;4432;50.890;4.744;2022-07-23T01:19:30;10.27;;;5.83;;
8791;SDS011;4432;50.890;4.744;2022-07-23T01:21:56;9.17;;;6.00;;
8791;SDS011;4432;50.890;4.744;2022-07-23T01:24:25;14.03;;;6.13;;
8791;SDS011;4432;50.890;4.744;2022-07-23T01:26:51;8.87;;;6.93;;
8791;SDS011;4432;50.890;4.744;2022-07-23T01:29:16;9.70;;;7.03;;
8791;SDS011;4432;50.890;4.744;2022-07-23T01:31:42;8.07;;;6.30;;
8791;SDS011;4432;50.890;4.744;2022-07-23T01:34:08;9.67;;;7.13;;
8791;SDS011;4432;50.890;4.744;2022-07-23T01:36:35;7.70;;;6.63;;
8791;SDS011;4432;50.890;4.744;2022-07-23T01:39:02;12.10;;;6.37;;
8791;SDS011;4432;50.890;4.744;2022-07-23T01:41:29;8.73;;;6.50;;
8791;SDS011;4432;50.890;4.744;2022-07-23T01:43:55;9.77;;;6.70;;
8791;SDS011;4432;50.890;4.744;2022-07-23T01:46:21;11.10;;;6.63;;
8791;SDS011;4432;50.890;4.744;2022-07-23T01:48:47;9.57;;;7.37;;
8791;SDS011;4432;50.890;4.744;2022-07-23T01:51:13;9.40;;;6.67;;
8791;SDS011;4432;50.890;4.744;2022-07-23T01:53:39;9.93;;;6.40;;
8791;SDS011;4432;50.890;4.744;2022-07-23T01:56:05;11.57;;;7.10;;
8791;SDS011;4432;50.890;4.744;2022-07-23T01:58:31;8.20;;;6.17;;
8791;SDS011;4432;50.890;4.744;2022-07-23T02:00:57;12.23;;;6.47;;
8791;SDS011;4432;50.890;4.744;2022-07-23T02:03:23;8.20;;;4.90;;
8791;SDS011;4432;50.890;4.744;2022-07-23T02:05:49;9.93;;;6.23;;
8791;SDS011;4432;50.890;4.744;2022-07-23T02:08:15;8.87;;;6.47;;
8791;SDS011;4432;50.890;4.744;2022-07-23T02:10:42;9.90;;;6.03;;
8791;SDS011;4432;50.890;4.744;2022-07-23T02:13:08;16.43;;;6.67;;
8791;SDS011;4432;50.890;4.744;2022-07-23T02:15:33;11.23;;;5.80;;
8791;SDS011;4432;50.890;4.744;2022-07-23T02:17:59;8.03;;;6.37;;
8791;SDS011;4432;50.890;4.744;2022-07-23T02:20:25;12.10;;;6.43;;
8791;SDS011;4432;50.890;4.744;2022-07-23T02:22:51;12.83;;;6.23;;
8791;SDS011;4432;50.890;4.744;2022-07-23T02:25:17;10.20;;;6.43;;
8791;SDS011;4432;50.890;4.744;2022-07-23T02:27:42;8.63;;;5.43;;
8791;SDS011;4432;50.890;4.744;2022-07-23T02:30:08;8.43;;;6.17;;
8791;SDS011;4432;50.890;4.744;2022-07-23T02:32:34;9.63;;;5.90;;
8791;SDS011;4432;50.890;4.744;2022-07-23T02:35:01;8.67;;;5.80;;
8791;SDS011;4432;50.890;4.744;2022-07-23T02:37:27;7.83;;;5.47;;
8791;SDS011;4432;50.890;4.744;2022-07-23T02:39:53;10.13;;;6.53;;
8791;SDS011;4432;50.890;4.744;2022-07-23T02:42:19;10.70;;;5.53;;
8791;SDS011;4432;50.890;4.744;2022-07-23T02:44:45;8.67;;;6.53;;
8791;SDS011;4432;50.890;4.744;2022-07-23T02:47:10;14.93;;;5.57;;
8791;SDS011;4432;50.890;4.744;2022-07-23T02:49:36;9.37;;;5.63;;
8791;SDS011;4432;50.890;4.744;2022-07-23T02:52:02;6.80;;;5.13;;
8791;SDS011;4432;50.890;4.744;2022-07-23T02:54:28;13.70;;;6.07;;
8791;SDS011;4432;50.890;4.744;2022-07-23T02:56:53;14.30;;;6.23;;
8791;SDS011;4432;50.890;4.744;2022-07-23T02:59:19;8.93;;;6.53;;
8791;SDS011;4432;50.890;4.744;2022-07-23T03:01:45;8.77;;;5.87;;
8791;SDS011;4432;50.890;4.744;2022-07-23T03:04:11;8.70;;;6.23;;
8791;SDS011;4432;50.890;4.744;2022-07-23T03:06:37;11.80;;;5.97;;
8791;SDS011;4432;50.890;4.744;2022-07-23T03:09:03;9.33;;;5.73;;
8791;SDS011;4432;50.890;4.744;2022-07-23T03:11:29;8.40;;;5.57;;
8791;SDS011;4432;50.890;4.744;2022-07-23T03:13:55;10.60;;;6.27;;
8791;SDS011;4432;50.890;4.744;2022-07-23T03:16:21;8.50;;;6.00;;
8791;SDS011;4432;50.890;4.744;2022-07-23T03:18:47;7.13;;;5.27;;
8791;SDS011;4432;50.890;4.744;2022-07-23T03:21:13;12.47;;;6.00;;
8791;SDS011;4432;50.890;4.744;2022-07-23T03:23:39;8.30;;;5.70;;
8791;SDS011;4432;50.890;4.744;2022-07-23T03:26:04;14.00;;;5.30;;
8791;SDS011;4432;50.890;4.744;2022-07-23T03:28:30;8.53;;;5.47;;
8791;SDS011;4432;50.890;4.744;2022-07-23T03:30:56;8.00;;;5.57;;
8791;SDS011;4432;50.890;4.744;2022-07-23T03:33:22;13.83;;;5.93;;
8791;SDS011;4432;50.890;4.744;2022-07-23T03:35:48;9.03;;;5.93;;
8791;SDS011;4432;50.890;4.744;2022-07-23T03:38:14;9.57;;;6.27;;
8791;SDS011;4432;50.890;4.744;2022-07-23T03:40:41;7.90;;;6.10;;
8791;SDS011;4432;50.890;4.744;2022-07-23T03:43:07;10.33;;;6.60;;
8791;SDS011;4432;50.890;4.744;2022-07-23T03:45:32;7.50;;;5.60;;
8791;SDS011;4432;50.890;4.744;2022-07-23T03:47:58;8.37;;;5.77;;
8791;SDS011;4432;50.890;4.744;2022-07-23T03:50:25;9.50;;;6.00;;
8791;SDS011;4432;50.890;4.744;2022-07-23T03:52:51;9.30;;;6.77;;
8791;SDS011;4432;50.890;4.744;2022-07-23T03:55:17;8.60;;;5.67;;
8791;SDS011;4432;50.890;4.744;2022-07-23T03:57:42;9.00;;;5.13;;
8791;SDS011;4432;50.890;4.744;2022-07-23T04:00:09;11.00;;;6.87;;
8791;SDS011;4432;50.890;4.744;2022-07-23T04:02:37;9.83;;;6.43;;
8791;SDS011;4432;50.890;4.744;2022-07-23T04:05:03;13.83;;;6.40;;
8791;SDS011;4432;50.890;4.744;2022-07-23T04:07:29;10.63;;;6.70;;
8791;SDS011;4432;50.890;4.744;2022-07-23T04:09:56;7.47;;;5.60;;
8791;SDS011;4432;50.890;4.744;2022-07-23T04:12:21;11.97;;;5.93;;
8791;SDS011;4432;50.890;4.744;2022-07-23T04:14:47;8.03;;;5.83;;
8791;SDS011;4432;50.890;4.744;2022-07-23T04:17:13;10.60;;;6.43;;
8791;SDS011;4432;50.890;4.744;2022-07-23T04:19:39;7.77;;;5.67;;
8791;SDS011;4432;50.890;4.744;2022-07-23T04:22:10;7.17;;;5.33;;
8791;SDS011;4432;50.890;4.744;2022-07-23T04:24:36;7.50;;;5.50;;
8791;SDS011;4432;50.890;4.744;2022-07-23T04:27:02;7.80;;;5.33;;
8791;SDS011;4432;50.890;4.744;2022-07-23T04:29:29;8.93;;;6.27;;
8791;SDS011;4432;50.890;4.744;2022-07-23T04:31:55;10.17;;;6.30;;
8791;SDS011;4432;50.890;4.744;2022-07-23T04:34:20;13.23;;;6.47;;
8791;SDS011;4432;50.890;4.744;2022-07-23T04:36:47;9.07;;;5.60;;
8791;SDS011;4432;50.890;4.744;2022-07-23T04:39:13;9.80;;;5.80;;
8791;SDS011;4432;50.890;4.744;2022-07-23T04:41:39;10.80;;;6.50;;
8791;SDS011;4432;50.890;4.744;2022-07-23T04:44:05;11.20;;;6.47;;
8791;SDS011;4432;50.890;4.744;2022-07-23T04:46:31;10.00;;;6.23;;
8791;SDS011;4432;50.890;4.744;2022-07-23T04:48:56;6.97;;;5.80;;
8791;SDS011;4432;50.890;4.744;2022-07-23T04:51:22;7.90;;;5.90;;
8791;SDS011;4432;50.890;4.744;2022-07-23T04:53:48;10.13;;;6.73;;
8791;SDS011;4432;50.890;4.744;2022-07-23T04:56:14;10.07;;;6.37;;
8791;SDS011;4432;50.890;4.744;2022-07-23T04:58:40;10.73;;;6.90;;
8791;SDS011;4432;50.890;4.744;2022-07-23T05:01:06;12.03;;;7.43;;
8791;SDS011;4432;50.890;4.744;2022-07-23T05:03:32;11.87;;;7.53;;
8791;SDS011;4432;50.890;4.744;2022-07-23T05:05:57;14.67;;;8.47;;
8791;SDS011;4432;50.890;4.744;2022-07-23T05:08:23;13.27;;;7.87;;
8791;SDS011;4432;50.890;4.744;2022-07-23T05:10:49;10.50;;;6.93;;
8791;SDS011;4432;50.890;4.744;2022-07-23T05:13:15;9.07;;;7.60;;
8791;SDS011;4432;50.890;4.744;2022-07-23T05:15:41;11.83;;;7.63;;
8791;SDS011;4432;50.890;4.744;2022-07-23T05:18:08;11.90;;;7.23;;
8791;SDS011;4432;50.890;4.744;2022-07-23T05:20:33;12.60;;;8.37;;
8791;SDS011;4432;50.890;4.744;2022-07-23T05:22:59;12.67;;;8.20;;
8791;SDS011;4432;50.890;4.744;2022-07-23T05:25:25;12.33;;;8.63;;
8791;SDS011;4432;50.890;4.744;2022-07-23T05:27:51;10.93;;;8.17;;
8791;SDS011;4432;50.890;4.744;2022-07-23T05:30:16;12.60;;;8.43;;
8791;SDS011;4432;50.890;4.744;2022-07-23T05:32:42;14.93;;;9.60;;
8791;SDS011;4432;50.890;4.744;2022-07-23T05:35:08;13.33;;;9.97;;
8791;SDS011;4432;50.890;4.744;2022-07-23T05:37:34;12.17;;;8.90;;
8791;SDS011;4432;50.890;4.744;2022-07-23T05:40:07;13.40;;;9.07;;
8791;SDS011;4432;50.890;4.744;2022-07-23T05:42:35;14.17;;;8.60;;
8791;SDS011;4432;50.890;4.744;2022-07-23T05:45:01;12.00;;;8.80;;
8791;SDS011;4432;50.890;4.744;2022-07-23T05:47:28;14.37;;;9.33;;
8791;SDS011;4432;50.890;4.744;2022-07-23T05:49:54;13.23;;;8.97;;
8791;SDS011;4432;50.890;4.744;2022-07-23T05:52:19;12.40;;;9.27;;
8791;SDS011;4432;50.890;4.744;2022-07-23T05:54:45;11.97;;;8.67;;
8791;SDS011;4432;50.890;4.744;2022-07-23T05:57:11;10.57;;;8.80;;
8791;SDS011;4432;50.890;4.744;2022-07-23T05:59:36;13.50;;;8.37;;
8791;SDS011;4432;50.890;4.744;2022-07-23T06:02:02;15.80;;;8.67;;
8791;SDS011;4432;50.890;4.744;2022-07-23T06:04:28;10.73;;;8.53;;
8791;SDS011;4432;50.890;4.744;2022-07-23T06:06:54;13.60;;;8.37;;
8791;SDS011;4432;50.890;4.744;2022-07-23T06:09:19;11.90;;;9.00;;
8791;SDS011;4432;50.890;4.744;2022-07-23T06:11:45;9.10;;;7.40;;
8791;SDS011;4432;50.890;4.744;2022-07-23T06:14:11;11.63;;;8.07;;
8791;SDS011;4432;50.890;4.744;2022-07-23T06:16:36;8.90;;;7.70;;
8791;SDS011;4432;50.890;4.744;2022-07-23T06:19:02;9.77;;;8.30;;
8791;SDS011;4432;50.890;4.744;2022-07-23T06:21:28;9.30;;;7.57;;
8791;SDS011;4432;50.890;4.744;2022-07-23T06:23:53;10.27;;;8.13;;
8791;SDS011;4432;50.890;4.744;2022-07-23T06:26:19;8.50;;;7.30;;
8791;SDS011;4432;50.890;4.744;2022-07-23T06:28:45;10.23;;;7.40;;
8791;SDS011;4432;50.890;4.744;2022-07-23T06:31:10;8.33;;;6.80;;
8791;SDS011;4432;50.890;4.744;2022-07-23T06:33:36;12.23;;;7.30;;
8791;SDS011;4432;50.890;4.744;2022-07-23T06:36:02;11.13;;;6.90;;
8791;SDS011;4432;50.890;4.744;2022-07-23T06:38:28;11.90;;;7.00;;
8791;SDS011;4432;50.890;4.744;2022-07-23T06:40:53;12.27;;;7.20;;
8791;SDS011;4432;50.890;4.744;2022-07-23T06:43:19;10.20;;;6.67;;
8791;SDS011;4432;50.890;4.744;2022-07-23T06:45:45;12.63;;;6.77;;
8791;SDS011;4432;50.890;4.744;2022-07-23T06:48:10;8.23;;;6.73;;
8791;SDS011;4432;50.890;4.744;2022-07-23T06:50:36;7.33;;;6.53;;
8791;SDS011;4432;50.890;4.744;2022-07-23T06:53:02;12.10;;;6.60;;
8791;SDS011;4432;50.890;4.744;2022-07-23T06:55:27;7.50;;;5.80;;
8791;SDS011;4432;50.890;4.744;2022-07-23T06:57:53;11.00;;;6.03;;
8791;SDS011;4432;50.890;4.744;2022-07-23T07:00:19;6.43;;;5.83;;
8791;SDS011;4432;50.890;4.744;2022-07-23T07:02:45;11.57;;;6.40;;
8791;SDS011;4432;50.890;4.744;2022-07-23T07:05:10;7.73;;;6.03;;
8791;SDS011;4432;50.890;4.744;2022-07-23T07:07:36;7.97;;;5.77;;
8791;SDS011;4432;50.890;4.744;2022-07-23T07:10:02;7.97;;;6.07;;
8791;SDS011;4432;50.890;4.744;2022-07-23T07:12:29;11.20;;;7.07;;
8791;SDS011;4432;50.890;4.744;2022-07-23T07:14:54;8.77;;;7.10;;
8791;SDS011;4432;50.890;4.744;2022-07-23T07:17:20;8.67;;;6.10;;
8791;SDS011;4432;50.890;4.744;2022-07-23T07:19:46;7.93;;;6.07;;
8791;SDS011;4432;50.890;4.744;2022-07-23T07:22:11;7.37;;;5.90;;
8791;SDS011;4432;50.890;4.744;2022-07-23T07:24:37;12.80;;;6.30;;
8791;SDS011;4432;50.890;4.744;2022-07-23T07:27:03;9.00;;;6.17;;
8791;SDS011;4432;50.890;4.744;2022-07-23T07:29:29;9.37;;;5.33;;
8791;SDS011;4432;50.890;4.744;2022-07-23T07:31:54;8.40;;;6.30;;
8791;SDS011;4432;50.890;4.744;2022-07-23T07:34:20;8.73;;;5.77;;
8791;SDS011;4432;50.890;4.744;2022-07-23T07:36:46;12.77;;;5.77;;
8791;SDS011;4432;50.890;4.744;2022-07-23T07:39:11;8.77;;;6.23;;
8791;SDS011;4432;50.890;4.744;2022-07-23T07:41:37;8.73;;;6.20;;
8791;SDS011;4432;50.890;4.744;2022-07-23T07:44:03;6.27;;;5.37;;
8791;SDS011;4432;50.890;4.744;2022-07-23T07:46:29;8.33;;;5.53;;
8791;SDS011;4432;50.890;4.744;2022-07-23T07:48:55;6.13;;;5.47;;
8791;SDS011;4432;50.890;4.744;2022-07-23T07:51:21;9.80;;;6.27;;
8791;SDS011;4432;50.890;4.744;2022-07-23T07:53:47;6.63;;;5.67;;
8791;SDS011;4432;50.890;4.744;2022-07-23T07:56:12;6.30;;;5.43;;
8791;SDS011;4432;50.890;4.744;2022-07-23T07:58:38;7.97;;;5.93;;
8791;SDS011;4432;50.890;4.744;2022-07-23T08:01:04;5.90;;;5.10;;
8791;SDS011;4432;50.890;4.744;2022-07-23T08:03:30;7.17;;;5.27;;
8791;SDS011;4432;50.890;4.744;2022-07-23T08:05:55;12.07;;;5.47;;
8791;SDS011;4432;50.890;4.744;2022-07-23T08:08:21;11.57;;;5.90;;
8791;SDS011;4432;50.890;4.744;2022-07-23T08:10:47;7.23;;;4.63;;
8791;SDS011;4432;50.890;4.744;2022-07-23T08:13:13;8.10;;;5.37;;
8791;SDS011;4432;50.890;4.744;2022-07-23T08:15:41;8.63;;;5.63;;
8791;SDS011;4432;50.890;4.744;2022-07-23T08:18:07;6.03;;;4.90;;
8791;SDS011;4432;50.890;4.744;2022-07-23T08:20:33;6.83;;;5.40;;
8791;SDS011;4432;50.890;4.744;2022-07-23T08:22:59;11.43;;;5.30;;
8791;SDS011;4432;50.890;4.744;2022-07-23T08:25:32;6.63;;;4.97;;
8791;SDS011;4432;50.890;4.744;2022-07-23T08:28:06;6.03;;;5.23;;
8791;SDS011;4432;50.890;4.744;2022-07-23T08:30:35;6.93;;;4.90;;
8791;SDS011;4432;50.890;4.744;2022-07-23T08:33:03;7.33;;;4.83;;
8791;SDS011;4432;50.890;4.744;2022-07-23T08:35:36;8.93;;;4.53;;
8791;SDS011;4432;50.890;4.744;2022-07-23T08:38:04;7.00;;;5.00;;
8791;SDS011;4432;50.890;4.744;2022-07-23T08:40:33;5.30;;;4.00;;
8791;SDS011;4432;50.890;4.744;2022-07-23T08:43:09;7.03;;;4.83;;
8791;SDS011;4432;50.890;4.744;2022-07-23T08:45:37;5.30;;;4.13;;
8791;SDS011;4432;50.890;4.744;2022-07-23T08:48:05;9.53;;;5.00;;
8791;SDS011;4432;50.890;4.744;2022-07-23T08:50:45;6.63;;;4.13;;
8791;SDS011;4432;50.890;4.744;2022-07-23T08:53:14;6.10;;;5.13;;
8791;SDS011;4432;50.890;4.744;2022-07-23T08:55:43;6.67;;;4.60;;
8791;SDS011;4432;50.890;4.744;2022-07-23T08:58:10;7.93;;;4.53;;
8791;SDS011;4432;50.890;4.744;2022-07-23T09:00:36;4.73;;;3.97;;
8791;SDS011;4432;50.890;4.744;2022-07-23T09:03:02;4.90;;;3.30;;
8791;SDS011;4432;50.890;4.744;2022-07-23T09:05:28;5.83;;;4.00;;
8791;SDS011;4432;50.890;4.744;2022-07-23T09:10:50;4.47;;;3.00;;
8791;SDS011;4432;50.890;4.744;2022-07-23T09:13:23;4.57;;;3.67;;
8791;SDS011;4432;50.890;4.744;2022-07-23T09:21:07;4.00;;;3.08;;
8791;SDS011;4432;50.890;4.744;2022-07-23T09:26:58;3.60;;;2.95;;
8791;SDS011;4432;50.890;4.744;2022-07-23T09:29:07;4.57;;;2.85;;
8791;SDS011;4432;50.890;4.744;2022-07-23T09:31:34;8.63;;;3.67;;
8791;SDS011;4432;50.890;4.744;2022-07-23T09:34:12;4.72;;;3.53;;
8791;SDS011;4432;50.890;4.744;2022-07-23T09:36:42;5.65;;;3.47;;
8791;SDS011;4432;50.890;4.744;2022-07-23T09:39:09;4.22;;;3.25;;
8791;SDS011;4432;50.890;4.744;2022-07-23T09:41:38;4.00;;;3.22;;
8791;SDS011;4432;50.890;4.744;2022-07-23T09:44:09;5.38;;;3.20;;
8791;SDS011;4432;50.890;4.744;2022-07-23T09:46:37;3.72;;;3.05;;
8791;SDS011;4432;50.890;4.744;2022-07-23T09:49:15;4.55;;;2.92;;
8791;SDS011;4432;50.890;4.744;2022-07-23T09:56:47;6.28;;;2.92;;
8791;SDS011;4432;50.890;4.744;2022-07-23T09:59:14;2.83;;;2.40;;
8791;SDS011;4432;50.890;4.744;2022-07-23T10:01:43;2.60;;;2.40;;
8791;SDS011;4432;50.890;4.744;2022-07-23T10:04:10;3.00;;;2.67;;
8791;SDS011;4432;50.890;4.744;2022-07-23T10:06:37;2.83;;;2.63;;
8791;SDS011;4432;50.890;4.744;2022-07-23T10:09:05;3.03;;;2.60;;
8791;SDS011;4432;50.890;4.744;2022-07-23T10:11:33;2.30;;;2.10;;
8791;SDS011;4432;50.890;4.744;2022-07-23T10:14:00;2.35;;;2.15;;
8791;SDS011;4432;50.890;4.744;2022-07-23T10:16:29;3.53;;;2.40;;
8791;SDS011;4432;50.890;4.744;2022-07-23T10:18:55;2.75;;;2.55;;
8791;SDS011;4432;50.890;4.744;2022-07-23T10:32:15;3.05;;;1.75;;
8791;SDS011;4432;50.890;4.744;2022-07-23T10:35:07;1.80;;;1.50;;
8791;SDS011;4432;50.890;4.744;2022-07-23T10:37:44;3.03;;;2.10;;
8791;SDS011;4432;50.890;4.744;2022-07-23T10:40:17;2.38;;;1.95;;
8791;SDS011;4432;50.890;4.744;2022-07-23T10:42:45;2.73;;;2.03;;
8791;SDS011;4432;50.890;4.744;2022-07-23T10:50:43;2.23;;;1.83;;
8791;SDS011;4432;50.890;4.744;2022-07-23T10:53:29;2.00;;;1.80;;
8791;SDS011;4432;50.890;4.744;2022-07-23T10:56:15;1.63;;;1.53;;
8791;SDS011;4432;50.890;4.744;2022-07-23T10:58:47;2.10;;;1.53;;
8791;SDS011;4432;50.890;4.744;2022-07-23T11:04:00;3.27;;;1.90;;
8791;SDS011;4432;50.890;4.744;2022-07-23T11:09:23;1.77;;;1.63;;
8791;SDS011;4432;50.890;4.744;2022-07-23T11:17:27;1.80;;;1.70;;
8791;SDS011;4432;50.890;4.744;2022-07-23T11:25:05;2.63;;;1.70;;
8791;SDS011;4432;50.890;4.744;2022-07-23T11:30:07;2.13;;;1.90;;
8791;SDS011;4432;50.890;4.744;2022-07-23T11:32:36;2.30;;;1.73;;
8791;SDS011;4432;50.890;4.744;2022-07-23T11:35:23;1.50;;;1.40;;
8791;SDS011;4432;50.890;4.744;2022-07-23T11:37:53;1.90;;;1.80;;
8791;SDS011;4432;50.890;4.744;2022-07-23T11:40:28;1.83;;;1.50;;
8791;SDS011;4432;50.890;4.744;2022-07-23T11:42:55;2.93;;;1.60;;
8791;SDS011;4432;50.890;4.744;2022-07-23T11:45:29;2.17;;;1.60;;
8791;SDS011;4432;50.890;4.744;2022-07-23T11:48:02;2.50;;;1.77;;
8791;SDS011;4432;50.890;4.744;2022-07-23T11:50:28;2.40;;;1.70;;
8791;SDS011;4432;50.890;4.744;2022-07-23T11:52:54;3.00;;;1.70;;
8791;SDS011;4432;50.890;4.744;2022-07-23T11:55:20;1.60;;;1.50;;
8791;SDS011;4432;50.890;4.744;2022-07-23T11:57:47;3.23;;;2.10;;
8791;SDS011;4432;50.890;4.744;2022-07-23T12:00:14;1.50;;;1.40;;
8791;SDS011;4432;50.890;4.744;2022-07-23T12:02:43;2.60;;;1.70;;
8791;SDS011;4432;50.890;4.744;2022-07-23T12:05:21;1.50;;;1.40;;
8791;SDS011;4432;50.890;4.744;2022-07-23T12:07:48;2.90;;;1.60;;
8791;SDS011;4432;50.890;4.744;2022-07-23T12:10:17;1.90;;;1.50;;
8791;SDS011;4432;50.890;4.744;2022-07-23T12:12:50;2.67;;;1.80;;
8791;SDS011;4432;50.890;4.744;2022-07-23T12:15:19;1.60;;;1.50;;
8791;SDS011;4432;50.890;4.744;2022-07-23T12:17:47;1.67;;;1.57;;
8791;SDS011;4432;50.890;4.744;2022-07-23T12:20:20;2.87;;;1.40;;
8791;SDS011;4432;50.890;4.744;2022-07-23T12:22:51;1.47;;;1.37;;
8791;SDS011;4432;50.890;4.744;2022-07-23T12:25:21;2.77;;;1.80;;
8791;SDS011;4432;50.890;4.744;2022-07-23T12:28:08;1.60;;;1.50;;
8791;SDS011;4432;50.890;4.744;2022-07-23T12:33:11;1.50;;;1.33;;
8791;SDS011;4432;50.890;4.744;2022-07-23T12:35:44;3.20;;;1.73;;
8791;SDS011;4432;50.890;4.744;2022-07-23T12:38:18;1.60;;;1.50;;
8791;SDS011;4432;50.890;4.744;2022-07-23T12:43:26;1.80;;;1.40;;
8791;SDS011;4432;50.890;4.744;2022-07-23T12:46:03;2.93;;;1.73;;
8791;SDS011;4432;50.890;4.744;2022-07-23T12:48:31;1.60;;;1.50;;
8791;SDS011;4432;50.890;4.744;2022-07-23T12:58:42;2.83;;;1.77;;
8791;SDS011;4432;50.890;4.744;2022-07-23T13:01:44;3.95;;;1.75;;
8791;SDS011;4432;50.890;4.744;2022-07-23T13:04:18;2.57;;;1.57;;
8791;SDS011;4432;50.890;4.744;2022-07-23T13:06:46;2.83;;;1.70;;
8791;SDS011;4432;50.890;4.744;2022-07-23T13:09:15;1.70;;;1.60;;
8791;SDS011;4432;50.890;4.744;2022-07-23T13:11:50;1.70;;;1.60;;
8791;SDS011;4432;50.890;4.744;2022-07-23T13:14:17;2.60;;;1.60;;
8791;SDS011;4432;50.890;4.744;2022-07-23T13:16:44;2.20;;;1.77;;
8791;SDS011;4432;50.890;4.744;2022-07-23T13:19:10;2.63;;;1.97;;
8791;SDS011;4432;50.890;4.744;2022-07-23T13:21:36;1.70;;;1.60;;
8791;SDS011;4432;50.890;4.744;2022-07-23T13:24:02;1.90;;;1.67;;
8791;SDS011;4432;50.890;4.744;2022-07-23T13:26:28;3.13;;;1.80;;
8791;SDS011;4432;50.890;4.744;2022-07-23T13:28:54;1.98;;;1.70;;
8791;SDS011;4432;50.890;4.744;2022-07-23T13:31:20;1.70;;;1.60;;
8791;SDS011;4432;50.890;4.744;2022-07-23T13:33:46;3.03;;;1.60;;
8791;SDS011;4432;50.890;4.744;2022-07-23T13:36:11;1.60;;;1.50;;
8791;SDS011;4432;50.890;4.744;2022-07-23T13:38:37;1.60;;;1.40;;
8791;SDS011;4432;50.890;4.744;2022-07-23T13:41:04;3.73;;;1.60;;
8791;SDS011;4432;50.890;4.744;2022-07-23T13:43:31;1.80;;;1.70;;
8791;SDS011;4432;50.890;4.744;2022-07-23T13:45:57;2.03;;;1.70;;
8791;SDS011;4432;50.890;4.744;2022-07-23T13:48:23;1.50;;;1.40;;
8791;SDS011;4432;50.890;4.744;2022-07-23T13:50:50;2.03;;;1.70;;
8791;SDS011;4432;50.890;4.744;2022-07-23T13:53:18;1.90;;;1.60;;
8791;SDS011;4432;50.890;4.744;2022-07-23T13:55:46;2.90;;;1.90;;
8791;SDS011;4432;50.890;4.744;2022-07-23T13:58:12;2.00;;;1.80;;
8791;SDS011;4432;50.890;4.744;2022-07-23T14:00:40;1.70;;;1.60;;
8791;SDS011;4432;50.890;4.744;2022-07-23T14:03:09;3.00;;;1.60;;
8791;SDS011;4432;50.890;4.744;2022-07-23T14:05:35;1.60;;;1.50;;
8791;SDS011;4432;50.890;4.744;2022-07-23T14:08:01;1.60;;;1.50;;
8791;SDS011;4432;50.890;4.744;2022-07-23T14:10:28;2.17;;;1.80;;
8791;SDS011;4432;50.890;4.744;2022-07-23T14:12:54;1.90;;;1.80;;
8791;SDS011;4432;50.890;4.744;2022-07-23T14:15:21;3.07;;;1.67;;
8791;SDS011;4432;50.890;4.744;2022-07-23T14:17:47;3.60;;;2.03;;
8791;SDS011;4432;50.890;4.744;2022-07-23T14:20:13;3.53;;;2.27;;
8791;SDS011;4432;50.890;4.744;2022-07-23T14:22:39;3.17;;;1.77;;
8791;SDS011;4432;50.890;4.744;2022-07-23T14:25:06;1.97;;;1.70;;
8791;SDS011;4432;50.890;4.744;2022-07-23T14:27:32;3.03;;;1.73;;
8791;SDS011;4432;50.890;4.744;2022-07-23T14:29:58;3.37;;;1.77;;
8791;SDS011;4432;50.890;4.744;2022-07-23T14:32:24;1.93;;;1.83;;
8791;SDS011;4432;50.890;4.744;2022-07-23T14:34:50;2.47;;;1.80;;
8791;SDS011;4432;50.890;4.744;2022-07-23T14:37:17;1.90;;;1.80;;
8791;SDS011;4432;50.890;4.744;2022-07-23T14:39:44;2.40;;;2.03;;
8791;SDS011;4432;50.890;4.744;2022-07-23T14:42:10;1.90;;;1.80;;
8791;SDS011;4432;50.890;4.744;2022-07-23T14:44:36;1.90;;;1.80;;
8791;SDS011;4432;50.890;4.744;2022-07-23T14:47:03;2.20;;;2.00;;
8791;SDS011;4432;50.890;4.744;2022-07-23T14:49:30;2.10;;;1.80;;
8791;SDS011;4432;50.890;4.744;2022-07-23T14:51:57;2.27;;;1.90;;
8791;SDS011;4432;50.890;4.744;2022-07-23T14:54:23;2.20;;;2.00;;
8791;SDS011;4432;50.890;4.744;2022-07-23T14:56:51;3.10;;;2.10;;
8791;SDS011;4432;50.890;4.744;2022-07-23T14:59:17;5.83;;;1.90;;
8791;SDS011;4432;50.890;4.744;2022-07-23T15:01:43;1.90;;;1.80;;
8791;SDS011;4432;50.890;4.744;2022-07-23T15:04:09;2.70;;;2.10;;
8791;SDS011;4432;50.890;4.744;2022-07-23T15:06:34;3.03;;;1.90;;
8791;SDS011;4432;50.890;4.744;2022-07-23T15:09:00;2.50;;;2.03;;
8791;SDS011;4432;50.890;4.744;2022-07-23T15:11:27;5.63;;;2.00;;
8791;SDS011;4432;50.890;4.744;2022-07-23T15:13:54;2.33;;;2.13;;
8791;SDS011;4432;50.890;4.744;2022-07-23T15:16:20;2.40;;;2.00;;
8791;SDS011;4432;50.890;4.744;2022-07-23T15:18:46;2.47;;;2.13;;
8791;SDS011;4432;50.890;4.744;2022-07-23T15:21:12;2.08;;;1.98;;
8791;SDS011;4432;50.890;4.744;2022-07-23T15:23:38;2.30;;;2.10;;
8791;SDS011;4432;50.890;4.744;2022-07-23T15:26:04;2.15;;;1.95;;
8791;SDS011;4432;50.890;4.744;2022-07-23T15:28:31;2.90;;;2.20;;
8791;SDS011;4432;50.890;4.744;2022-07-23T15:30:56;2.08;;;1.88;;
8791;SDS011;4432;50.890;4.744;2022-07-23T15:33:22;3.10;;;2.20;;
8791;SDS011;4432;50.890;4.744;2022-07-23T15:35:48;5.70;;;2.20;;
8791;SDS011;4432;50.890;4.744;2022-07-23T15:38:14;2.90;;;2.00;;
8791;SDS011;4432;50.890;4.744;2022-07-23T15:40:40;3.13;;;2.17;;
8791;SDS011;4432;50.890;4.744;2022-07-23T15:43:06;4.60;;;2.40;;
8791;SDS011;4432;50.890;4.744;2022-07-23T15:45:32;3.77;;;2.70;;
8791;SDS011;4432;50.890;4.744;2022-07-23T15:47:58;4.43;;;2.40;;
8791;SDS011;4432;50.890;4.744;2022-07-23T15:50:24;2.60;;;2.40;;
8791;SDS011;4432;50.890;4.744;2022-07-23T15:52:49;5.13;;;2.17;;
8791;SDS011;4432;50.890;4.744;2022-07-23T15:55:15;2.00;;;1.80;;
8791;SDS011;4432;50.890;4.744;2022-07-23T15:57:41;1.97;;;1.87;;
8791;SDS011;4432;50.890;4.744;2022-07-23T16:00:07;6.13;;;2.40;;
8791;SDS011;4432;50.890;4.744;2022-07-23T16:02:34;2.53;;;2.20;;
8791;SDS011;4432;50.890;4.744;2022-07-23T16:05:00;4.37;;;2.10;;
8791;SDS011;4432;50.890;4.744;2022-07-23T16:07:26;2.70;;;2.43;;
8791;SDS011;4432;50.890;4.744;2022-07-23T16:09:51;2.03;;;1.93;;
8791;SDS011;4432;50.890;4.744;2022-07-23T16:12:17;3.10;;;2.07;;
8791;SDS011;4432;50.890;4.744;2022-07-23T16:14:43;2.10;;;2.00;;
8791;SDS011;4432;50.890;4.744;2022-07-23T16:17:09;1.97;;;1.83;;